Time;durP1;ratioP1;P1;durP2;ratioP2;P2;SDS_P1;SDS_P2;PMS_P1;PMS_P2;Temp;Humidity;BMP_temperature;BMP_pressure;BME280_temperature;BME280_humidity;BME280_pressure;Samples;Min_cycle;Max_cycle;Signal;HPM_P1;HPM_P2
2021/06/06 00:00:42;;;;;;;4.10;3.80;;;16.90;79.20;;;;;;5046475;28;20241;-70
2021/06/06 00:03:28;;;;;;;2.55;2.53;;;16.90;79.20;;;;;;5042777;28;20214;-70
2021/06/06 00:05:57;;;;;;;3.97;2.92;;;16.80;79.30;;;;;;5047380;28;20282;-71
2021/06/06 00:08:25;;;;;;;3.80;3.50;;;16.80;79.50;;;;;;5047693;28;20210;-72
2021/06/06 00:10:54;;;;;;;3.20;2.67;;;16.80;79.60;;;;;;5052191;28;20223;-71
2021/06/06 00:13:21;;;;;;;4.13;3.28;;;16.70;79.60;;;;;;5049176;28;20212;-71
2021/06/06 00:15:47;;;;;;;3.10;2.90;;;16.70;79.70;;;;;;5057313;28;20223;-71
2021/06/06 00:18:13;;;;;;;2.90;2.70;;;16.60;79.80;;;;;;5046918;28;20265;-71
2021/06/06 00:20:39;;;;;;;3.42;3.20;;;16.60;80.30;;;;;;5047309;28;20218;-71
2021/06/06 00:23:06;;;;;;;4.38;2.83;;;16.50;80.10;;;;;;5047562;28;20183;-71
2021/06/06 00:25:32;;;;;;;3.20;3.03;;;16.50;79.90;;;;;;5046966;28;20688;-70
2021/06/06 00:27:58;;;;;;;2.95;2.85;;;16.50;80.00;;;;;;5051416;28;20218;-71
2021/06/06 00:30:26;;;;;;;4.45;3.30;;;16.50;79.90;;;;;;5045794;28;20223;-71
2021/06/06 00:32:52;;;;;;;2.80;2.60;;;16.40;80.10;;;;;;5052734;28;20224;-71
2021/06/06 00:35:18;;;;;;;3.25;2.97;;;16.40;80.10;;;;;;5049364;28;20183;-70
2021/06/06 00:37:44;;;;;;;2.85;2.75;;;16.40;80.00;;;;;;5047858;28;20195;-70
2021/06/06 00:40:13;;;;;;;4.03;2.67;;;16.30;80.10;;;;;;5047888;28;20180;-70
2021/06/06 00:42:39;;;;;;;3.60;2.88;;;16.30;80.00;;;;;;5051949;28;20588;-69
2021/06/06 00:45:09;;;;;;;3.25;3.08;;;16.20;80.60;;;;;;5048982;28;20200;-70
2021/06/06 00:47:35;;;;;;;3.05;2.85;;;16.20;80.40;;;;;;5047820;28;20203;-70
2021/06/06 00:50:07;;;;;;;3.10;2.80;;;16.20;80.50;;;;;;5047744;28;20456;-70
2021/06/06 00:52:33;;;;;;;2.72;2.63;;;16.20;80.90;;;;;;5039600;28;20313;-69
2021/06/06 00:54:59;;;;;;;2.97;2.78;;;16.10;80.70;;;;;;5047620;28;20727;-69
2021/06/06 00:57:29;;;;;;;2.70;2.50;;;16.10;80.90;;;;;;5047344;28;20584;-69
2021/06/06 01:00:14;;;;;;;2.85;2.75;;;16.10;80.90;;;;;;5047234;28;20182;-70
2021/06/06 01:02:40;;;;;;;2.90;2.75;;;16.00;81.30;;;;;;5049464;28;20261;-70
2021/06/06 01:05:24;;;;;;;3.08;2.97;;;16.00;81.50;;;;;;5045280;28;20187;-69
2021/06/06 01:07:50;;;;;;;3.40;3.20;;;15.90;81.20;;;;;;5043887;28;20190;-69
2021/06/06 01:10:16;;;;;;;2.90;2.78;;;15.90;81.60;;;;;;5047580;28;20211;-71
2021/06/06 01:12:47;;;;;;;3.15;2.70;;;15.90;81.70;;;;;;5053963;28;20211;-71
2021/06/06 01:15:23;;;;;;;3.63;3.40;;;15.80;81.40;;;;;;5048032;28;20983;-71
2021/06/06 01:17:53;;;;;;;4.03;3.10;;;15.80;81.60;;;;;;5050147;28;20183;-70
2021/06/06 01:20:33;;;;;;;3.10;3.00;;;15.70;81.50;;;;;;5050376;28;20641;-69
2021/06/06 01:22:59;;;;;;;3.15;3.05;;;15.70;81.90;;;;;;5046974;28;20188;-70
2021/06/06 01:25:33;;;;;;;2.60;2.58;;;15.70;82.00;;;;;;5047626;28;20257;-69
2021/06/06 01:28:18;;;;;;;3.08;2.97;;;15.60;81.60;;;;;;5042772;28;20789;-68
2021/06/06 01:30:48;;;;;;;3.33;3.15;;;15.50;81.90;;;;;;5051396;28;20222;-69
2021/06/06 01:33:23;;;;;;;3.08;2.97;;;15.50;82.30;;;;;;5052624;28;20183;-69
2021/06/06 01:35:57;;;;;;;3.30;3.10;;;15.40;82.30;;;;;;5049710;28;20183;-69
2021/06/06 01:38:36;;;;;;;3.22;3.10;;;15.40;82.10;;;;;;5047403;28;20266;-69
2021/06/06 01:41:08;;;;;;;3.45;2.72;;;15.40;82.30;;;;;;5049800;28;20182;-70
2021/06/06 01:43:38;;;;;;;2.92;2.83;;;15.30;82.20;;;;;;5053793;28;20186;-69
2021/06/06 01:46:07;;;;;;;3.15;3.05;;;15.30;82.50;;;;;;5049181;28;20195;-69
2021/06/06 01:48:37;;;;;;;3.03;2.92;;;15.30;82.30;;;;;;5056669;28;20179;-69
2021/06/06 01:51:19;;;;;;;2.83;2.72;;;15.30;82.40;;;;;;5051341;28;20214;-69
2021/06/06 01:53:48;;;;;;;3.80;3.50;;;15.20;82.40;;;;;;5048747;28;20262;-70
2021/06/06 01:56:30;;;;;;;3.53;3.35;;;15.20;82.30;;;;;;5050363;28;20188;-71
2021/06/06 01:58:58;;;;;;;3.60;3.30;;;15.20;82.50;;;;;;5052969;28;20191;-71
2021/06/06 02:01:25;;;;;;;3.20;3.00;;;15.20;83.00;;;;;;5050943;28;20676;-70
2021/06/06 02:03:53;;;;;;;3.05;2.85;;;15.10;83.10;;;;;;5050045;28;20237;-70
2021/06/06 02:06:24;;;;;;;3.03;2.92;;;15.10;82.90;;;;;;5051326;28;20207;-70
2021/06/06 02:08:50;;;;;;;2.95;2.75;;;15.10;82.90;;;;;;5050993;28;20868;-70
2021/06/06 02:11:18;;;;;;;2.58;2.47;;;15.10;83.20;;;;;;5050656;28;20199;-70
2021/06/06 02:13:50;;;;;;;3.33;3.05;;;15.10;83.20;;;;;;5047772;28;20196;-70
2021/06/06 02:16:19;;;;;;;5.00;3.33;;;15.10;83.00;;;;;;5049177;28;20207;-71
2021/06/06 02:18:45;;;;;;;3.33;3.22;;;15.10;83.20;;;;;;5052871;28;20176;-70
2021/06/06 02:21:12;;;;;;;3.15;3.00;;;15.10;83.40;;;;;;5049915;28;20198;-70
2021/06/06 02:23:40;;;;;;;3.03;2.85;;;15.10;83.30;;;;;;5048914;28;20184;-70
2021/06/06 02:26:30;;;;;;;2.80;2.72;;;15.00;83.50;;;;;;5052776;28;20266;-71
2021/06/06 02:29:20;;;;;;;2.78;2.67;;;15.00;83.30;;;;;;5043137;28;20747;-70
2021/06/06 02:31:46;;;;;;;3.33;3.00;;;15.00;83.80;;;;;;5049605;28;20306;-70
2021/06/06 02:34:23;;;;;;;3.45;3.35;;;15.00;83.70;;;;;;5049821;28;20278;-69
2021/06/06 02:37:22;;;;;;;4.05;3.40;;;15.00;83.40;;;;;;5046488;28;20225;-70
2021/06/06 02:39:54;;;;;;;3.20;3.00;;;14.90;83.30;;;;;;5048836;28;20601;-70
2021/06/06 02:42:32;;;;;;;5.68;3.03;;;14.90;83.70;;;;;;5052766;28;20564;-70
2021/06/06 02:45:07;;;;;;;3.08;2.75;;;14.90;83.60;;;;;;5043849;28;20190;-71
2021/06/06 02:47:35;;;;;;;3.67;3.50;;;14.90;83.60;;;;;;5049552;28;20175;-71
2021/06/06 02:50:08;;;;;;;3.83;2.88;;;14.80;83.90;;;;;;5054300;28;20311;-69
2021/06/06 02:52:48;;;;;;;3.40;3.10;;;14.80;83.60;;;;;;5050966;28;20229;-71
2021/06/06 02:55:18;;;;;;;6.78;2.78;;;14.70;83.60;;;;;;5049987;28;20294;-69
2021/06/06 02:57:50;;;;;;;3.17;2.97;;;14.70;84.50;;;;;;5039215;28;20183;-69
2021/06/06 03:00:33;;;;;;;3.15;2.90;;;14.70;84.20;;;;;;5049535;28;20583;-69
2021/06/06 03:03:06;;;;;;;3.33;3.10;;;14.70;84.10;;;;;;5049091;28;20732;-70
2021/06/06 03:05:31;;;;;;;3.35;3.05;;;14.60;84.20;;;;;;5053510;28;20191;-70
2021/06/06 03:08:01;;;;;;;3.53;3.25;;;14.60;84.50;;;;;;5049671;28;20251;-70
2021/06/06 03:10:29;;;;;;;3.45;3.35;;;14.60;84.20;;;;;;5049372;28;20212;-70
2021/06/06 03:12:57;;;;;;;4.30;3.15;;;14.50;84.70;;;;;;5051413;28;20186;-71
2021/06/06 03:15:34;;;;;;;3.05;2.80;;;14.50;84.70;;;;;;5052372;28;20223;-69
2021/06/06 03:18:03;;;;;;;3.08;2.97;;;14.50;84.50;;;;;;5046670;28;20183;-70
2021/06/06 03:20:44;;;;;;;3.60;3.33;;;14.50;84.50;;;;;;5050582;28;20266;-69
2021/06/06 03:23:14;;;;;;;3.10;2.92;;;14.50;84.50;;;;;;5050739;28;20187;-69
2021/06/06 03:25:47;;;;;;;2.55;2.45;;;14.40;84.80;;;;;;5051879;28;20596;-69
2021/06/06 03:28:15;;;;;;;3.03;2.60;;;14.40;84.50;;;;;;5049188;28;20210;-69
2021/06/06 03:30:43;;;;;;;2.95;2.78;;;14.30;84.40;;;;;;5049003;28;20207;-70
2021/06/06 03:33:19;;;;;;;2.75;2.65;;;14.30;84.20;;;;;;5049353;28;20187;-69
2021/06/06 03:35:46;;;;;;;2.90;2.80;;;14.30;83.80;;;;;;5047816;28;20198;-71
2021/06/06 03:38:12;;;;;;;2.90;2.78;;;14.30;84.70;;;;;;5049014;28;20672;-71
2021/06/06 03:40:41;;;;;;;2.70;2.60;;;14.30;84.80;;;;;;5055312;28;20705;-70
2021/06/06 03:43:10;;;;;;;2.22;2.22;;;14.30;84.60;;;;;;5052265;28;20194;-70
2021/06/06 03:45:36;;;;;;;2.50;2.30;;;14.30;84.50;;;;;;5047545;28;20176;-70
2021/06/06 03:48:01;;;;;;;3.13;2.83;;;14.40;84.60;;;;;;5047666;28;20193;-71
2021/06/06 03:50:29;;;;;;;2.80;2.55;;;14.40;84.50;;;;;;5047673;28;20211;-71
2021/06/06 03:52:56;;;;;;;3.03;2.83;;;14.40;84.40;;;;;;5046557;28;20183;-70
2021/06/06 03:55:22;;;;;;;6.13;2.80;;;14.50;84.30;;;;;;5048266;28;20202;-69
2021/06/06 03:57:49;;;;;;;2.63;2.42;;;14.50;84.40;;;;;;5047008;28;20211;-71
2021/06/06 04:00:23;;;;;;;2.53;2.42;;;14.60;84.40;;;;;;5048210;28;20195;-70
2021/06/06 04:02:49;;;;;;;3.80;2.47;;;14.60;84.20;;;;;;5047624;28;20266;-69
2021/06/06 04:05:15;;;;;;;2.88;2.65;;;14.70;84.80;;;;;;5048527;28;20769;-69
2021/06/06 04:07:41;;;;;;;3.25;3.05;;;14.70;84.70;;;;;;5048755;28;20191;-69
2021/06/06 04:10:07;;;;;;;3.10;2.90;;;14.70;84.40;;;;;;5048247;28;20207;-69
2021/06/06 04:12:33;;;;;;;2.88;2.63;;;14.80;84.10;;;;;;5048206;28;20176;-69
2021/06/06 04:14:59;;;;;;;3.03;2.92;;;14.80;84.00;;;;;;5047893;28;20199;-69
2021/06/06 04:17:25;;;;;;;3.10;3.00;;;14.80;83.70;;;;;;5048347;28;20176;-70
2021/06/06 04:19:53;;;;;;;3.90;3.60;;;14.90;83.70;;;;;;5043026;28;20179;-70
2021/06/06 04:22:19;;;;;;;3.83;2.47;;;14.90;83.90;;;;;;5048238;28;20183;-70
2021/06/06 04:24:45;;;;;;;2.83;2.67;;;14.90;83.80;;;;;;5047756;28;20207;-70
2021/06/06 04:27:11;;;;;;;3.53;3.33;;;14.90;83.60;;;;;;5048285;28;20299;-69
2021/06/06 04:29:55;;;;;;;3.38;3.10;;;15.00;83.50;;;;;;5048184;28;20184;-70
2021/06/06 04:32:21;;;;;;;2.45;2.35;;;15.00;83.20;;;;;;5048096;28;20317;-70
2021/06/06 04:34:48;;;;;;;3.13;2.97;;;15.00;84.20;;;;;;5043080;28;20275;-69
2021/06/06 04:37:16;;;;;;;2.97;2.88;;;15.00;83.50;;;;;;5048029;28;20290;-70
2021/06/06 04:39:42;;;;;;;3.75;3.08;;;15.00;83.80;;;;;;5047486;28;20717;-69
2021/06/06 04:42:09;;;;;;;2.42;2.33;;;15.10;83.40;;;;;;5047535;28;20326;-70
2021/06/06 04:44:38;;;;;;;4.35;3.03;;;15.10;83.20;;;;;;5047849;28;20172;-70
2021/06/06 04:47:09;;;;;;;4.53;3.33;;;15.10;82.70;;;;;;5047668;28;20179;-70
2021/06/06 04:49:40;;;;;;;3.03;2.85;;;15.20;82.90;;;;;;5047716;28;20180;-70
2021/06/06 04:52:08;;;;;;;3.78;3.45;;;15.20;82.20;;;;;;5046564;28;20219;-71
2021/06/06 04:54:34;;;;;;;3.55;3.30;;;15.30;82.40;;;;;;5044575;28;20187;-71
2021/06/06 04:57:00;;;;;;;3.97;3.78;;;15.30;83.20;;;;;;5042810;28;20571;-71
2021/06/06 04:59:26;;;;;;;3.72;3.47;;;15.40;82.80;;;;;;5050294;28;20184;-70
2021/06/06 05:01:52;;;;;;;6.18;3.75;;;15.40;82.60;;;;;;5054874;28;20647;-71
2021/06/06 05:04:18;;;;;;;3.95;3.75;;;15.50;82.70;;;;;;5036752;28;20230;-70
2021/06/06 05:06:44;;;;;;;4.32;3.28;;;15.60;82.80;;;;;;5047067;28;20179;-71
2021/06/06 05:09:10;;;;;;;3.85;3.63;;;15.60;82.90;;;;;;5053027;28;20188;-71
2021/06/06 05:11:36;;;;;;;5.40;3.65;;;15.70;82.60;;;;;;5046149;28;20211;-70
2021/06/06 05:14:03;;;;;;;3.60;3.35;;;15.70;82.50;;;;;;5045290;28;20282;-70
2021/06/06 05:16:29;;;;;;;5.35;4.30;;;15.80;82.70;;;;;;5046217;28;20179;-70
2021/06/06 05:18:56;;;;;;;3.78;3.63;;;15.80;82.60;;;;;;5034136;28;20180;-69
2021/06/06 05:21:23;;;;;;;4.70;4.30;;;15.90;82.60;;;;;;5043513;28;20603;-73
2021/06/06 05:23:48;;;;;;;4.05;3.53;;;16.00;82.30;;;;;;5051388;28;20218;-73
2021/06/06 05:26:14;;;;;;;3.95;3.65;;;16.00;82.00;;;;;;5051246;28;20195;-73
2021/06/06 05:28:40;;;;;;;3.97;3.72;;;16.10;81.90;;;;;;5052036;28;20192;-74
2021/06/06 05:31:07;;;;;;;4.47;3.97;;;16.10;81.80;;;;;;5053501;28;20207;-73
2021/06/06 05:33:33;;;;;;;4.70;3.47;;;16.20;81.80;;;;;;5053806;28;20269;-73
2021/06/06 05:36:00;;;;;;;3.78;3.50;;;16.30;81.40;;;;;;5052773;28;20184;-73
2021/06/06 05:38:29;;;;;;;3.15;3.05;;;16.30;81.30;;;;;;5047847;28;20184;-72
2021/06/06 05:40:56;;;;;;;3.75;3.55;;;16.40;81.60;;;;;;5046444;28;20187;-73
2021/06/06 05:43:23;;;;;;;3.80;3.60;;;16.40;81.30;;;;;;5048608;28;20186;-74
2021/06/06 05:45:50;;;;;;;3.28;3.17;;;16.50;81.20;;;;;;5049194;28;20203;-73
2021/06/06 05:48:16;;;;;;;4.70;3.45;;;16.50;81.20;;;;;;5048978;28;20187;-73
2021/06/06 05:50:48;;;;;;;3.08;2.97;;;16.60;81.10;;;;;;5048319;28;20208;-74
2021/06/06 05:53:14;;;;;;;3.85;3.65;;;16.70;80.90;;;;;;5048727;28;20761;-73
2021/06/06 05:55:40;;;;;;;3.47;3.08;;;16.80;81.00;;;;;;5048407;28;20195;-72
2021/06/06 05:58:06;;;;;;;3.72;3.28;;;16.80;80.90;;;;;;5044581;28;20656;-73
2021/06/06 06:00:36;;;;;;;3.20;3.00;;;16.90;80.20;;;;;;5045475;28;20262;-72
2021/06/06 06:03:02;;;;;;;5.45;2.90;;;16.90;80.10;;;;;;5045527;28;20640;-73
2021/06/06 06:05:28;;;;;;;2.90;2.80;;;17.00;79.60;;;;;;5044656;28;20274;-73
2021/06/06 06:07:54;;;;;;;3.60;3.30;;;17.10;79.40;;;;;;5043939;28;20651;-71
2021/06/06 06:10:24;;;;;;;3.20;3.00;;;17.10;79.30;;;;;;5044545;28;20207;-72
2021/06/06 06:12:50;;;;;;;3.00;2.90;;;17.20;78.90;;;;;;5046759;28;20183;-73
2021/06/06 06:15:17;;;;;;;2.95;2.75;;;17.20;79.30;;;;;;5044281;28;20580;-72
2021/06/06 06:17:43;;;;;;;3.10;2.47;;;17.30;79.10;;;;;;5048626;28;20313;-72
2021/06/06 06:20:12;;;;;;;2.88;2.67;;;17.40;79.10;;;;;;5042326;22;20232;-72
2021/06/06 06:22:38;;;;;;;3.13;3.03;;;17.50;78.90;;;;;;5022262;28;20557;-72
2021/06/06 06:25:07;;;;;;;3.25;3.08;;;17.50;78.80;;;;;;5028190;28;20195;-73
2021/06/06 06:27:33;;;;;;;3.20;3.00;;;17.60;78.50;;;;;;5023601;28;20223;-71
2021/06/06 06:29:59;;;;;;;3.90;3.05;;;17.70;78.50;;;;;;5023331;28;20184;-72
2021/06/06 06:32:27;;;;;;;5.28;3.60;;;17.70;78.70;;;;;;5023792;28;20191;-73
2021/06/06 06:34:54;;;;;;;6.07;3.50;;;17.80;78.50;;;;;;5023784;28;20195;-70
2021/06/06 06:37:22;;;;;;;4.22;4.03;;;17.90;78.40;;;;;;5027001;28;20262;-72
2021/06/06 06:39:48;;;;;;;3.88;3.42;;;18.00;78.60;;;;;;5027504;28;20785;-71
2021/06/06 06:42:14;;;;;;;3.22;3.13;;;18.00;78.60;;;;;;5025995;28;20681;-71
2021/06/06 06:44:40;;;;;;;5.53;2.42;;;18.10;78.50;;;;;;5026956;28;20196;-71
2021/06/06 06:47:05;;;;;;;3.58;3.40;;;18.20;78.70;;;;;;5027458;28;20250;-71
2021/06/06 06:49:31;;;;;;;5.82;3.33;;;18.30;78.70;;;;;;5029722;28;20187;-73
2021/06/06 06:51:57;;;;;;;3.00;2.90;;;18.30;78.70;;;;;;5028073;28;20218;-72
2021/06/06 06:54:23;;;;;;;3.35;3.15;;;18.40;78.50;;;;;;5029081;28;20192;-72
2021/06/06 06:56:49;;;;;;;4.00;3.85;;;18.50;77.80;;;;;;5026711;28;20187;-72
2021/06/06 06:59:14;;;;;;;3.35;3.25;;;18.60;77.60;;;;;;5028037;28;20195;-72
2021/06/06 07:01:40;;;;;;;6.00;4.13;;;18.60;77.40;;;;;;5018533;28;20188;-71
2021/06/06 07:04:06;;;;;;;3.38;3.28;;;18.60;77.20;;;;;;5033112;28;20176;-71
2021/06/06 07:06:32;;;;;;;4.88;3.90;;;18.70;77.20;;;;;;5021216;28;20188;-69
2021/06/06 07:08:58;;;;;;;3.70;3.60;;;18.80;77.50;;;;;;5020969;28;20280;-70
2021/06/06 07:11:25;;;;;;;4.18;3.50;;;18.80;77.10;;;;;;5010701;28;20749;-69
2021/06/06 07:13:51;;;;;;;4.63;4.22;;;18.90;76.70;;;;;;5025583;28;20212;-70
2021/06/06 07:16:19;;;;;;;4.07;3.65;;;19.00;76.70;;;;;;5016443;28;20607;-70
2021/06/06 07:18:45;;;;;;;4.70;3.55;;;19.10;77.50;;;;;;5012483;28;20255;-70
2021/06/06 07:21:19;;;;;;;5.85;3.97;;;19.20;77.40;;;;;;5015666;28;20286;-73
2021/06/06 07:23:45;;;;;;;4.22;3.83;;;19.20;77.10;;;;;;5017490;28;20337;-72
2021/06/06 07:26:36;;;;;;;5.15;4.05;;;19.30;77.20;;;;;;5020495;28;20571;-70
2021/06/06 07:29:10;;;;;;;4.38;3.92;;;19.40;77.50;;;;;;5018112;28;20252;-71
2021/06/06 07:31:40;;;;;;;2.80;2.70;;;19.60;77.20;;;;;;5021742;28;20562;-69
2021/06/06 07:34:05;;;;;;;3.88;3.78;;;19.70;77.30;;;;;;5017293;28;20184;-70
2021/06/06 07:36:31;;;;;;;4.43;3.70;;;19.80;77.10;;;;;;5021276;28;20184;-70
2021/06/06 07:38:57;;;;;;;4.03;3.83;;;19.90;76.90;;;;;;5019121;28;20756;-71
2021/06/06 07:41:25;;;;;;;4.18;3.97;;;20.00;75.90;;;;;;5022434;28;20184;-71
2021/06/06 07:43:51;;;;;;;4.30;4.05;;;20.00;75.40;;;;;;5025026;28;20176;-72
2021/06/06 07:46:20;;;;;;;4.53;4.32;;;20.10;75.10;;;;;;5024637;28;20591;-71
2021/06/06 07:48:46;;;;;;;4.13;3.78;;;20.10;75.20;;;;;;5018559;28;20553;-71
2021/06/06 07:51:12;;;;;;;4.20;3.83;;;20.20;75.40;;;;;;5021791;28;20211;-71
2021/06/06 07:53:38;;;;;;;4.10;3.88;;;20.30;75.80;;;;;;5016352;28;20200;-71
2021/06/06 07:56:04;;;;;;;4.45;4.25;;;20.30;75.20;;;;;;5014892;28;20212;-72
2021/06/06 07:58:34;;;;;;;4.38;4.18;;;20.40;75.30;;;;;;5017957;28;20235;-70
2021/06/06 08:01:01;;;;;;;4.63;4.07;;;20.50;74.60;;;;;;5021875;28;20184;-69
2021/06/06 08:03:29;;;;;;;4.40;4.20;;;20.50;74.10;;;;;;5020425;28;20184;-71
2021/06/06 08:05:56;;;;;;;5.65;4.43;;;20.60;73.80;;;;;;5020426;28;20176;-71
2021/06/06 08:08:21;;;;;;;4.30;4.03;;;20.60;73.50;;;;;;5019025;28;20243;-71
2021/06/06 08:10:50;;;;;;;4.05;3.85;;;20.70;73.60;;;;;;5021431;28;20217;-71
2021/06/06 08:13:18;;;;;;;4.22;3.85;;;20.80;73.60;;;;;;5016946;28;20189;-71
2021/06/06 08:15:43;;;;;;;4.45;4.15;;;20.90;74.10;;;;;;5016580;28;20251;-70
2021/06/06 08:18:18;;;;;;;4.38;4.18;;;21.00;74.30;;;;;;5017650;28;20200;-71
2021/06/06 08:20:47;;;;;;;4.43;4.13;;;21.20;73.80;;;;;;5019971;28;20203;-71
2021/06/06 08:23:13;;;;;;;4.68;4.38;;;21.30;73.60;;;;;;5021524;28;20299;-72
2021/06/06 08:25:40;;;;;;;5.20;4.15;;;21.40;73.50;;;;;;5023633;28;20263;-70
2021/06/06 08:28:07;;;;;;;4.22;4.03;;;21.50;73.50;;;;;;5011400;28;20185;-71
2021/06/06 08:30:52;;;;;;;7.82;4.68;;;21.60;73.00;;;;;;5019714;28;20235;-71
2021/06/06 08:33:21;;;;;;;4.05;3.75;;;21.70;72.90;;;;;;5015827;28;20192;-71
2021/06/06 08:35:47;;;;;;;4.53;4.22;;;21.80;72.90;;;;;;5027608;28;20191;-70
2021/06/06 08:38:13;;;;;;;4.85;4.55;;;21.90;72.50;;;;;;5023373;28;20191;-71
2021/06/06 08:40:50;;;;;;;4.43;4.15;;;21.90;72.30;;;;;;5008474;28;20595;-71
2021/06/06 08:43:17;;;;;;;7.10;4.20;;;22.00;71.80;;;;;;5014497;28;20179;-70
2021/06/06 08:45:59;;;;;;;6.38;4.05;;;22.10;71.30;;;;;;5025210;28;20230;-71
2021/06/06 08:48:28;;;;;;;6.93;4.07;;;22.30;71.80;;;;;;5025305;28;20253;-69
2021/06/06 08:51:06;;;;;;;4.07;3.95;;;22.40;72.10;;;;;;5021438;28;20645;-72
2021/06/06 08:53:52;;;;;;;7.10;4.22;;;22.60;72.10;;;;;;5020451;28;20195;-71
2021/06/06 08:56:26;;;;;;;6.90;4.07;;;22.90;71.80;;;;;;5020981;28;20216;-71
2021/06/06 08:58:59;;;;;;;6.15;4.03;;;23.10;70.00;;;;;;5017230;28;20726;-71
2021/06/06 09:01:40;;;;;;;4.13;3.92;;;23.20;69.40;;;;;;5021282;28;20185;-70
2021/06/06 09:04:14;;;;;;;4.15;3.85;;;23.50;68.90;;;;;;5018713;28;20180;-71
2021/06/06 09:06:49;;;;;;;4.50;3.47;;;23.70;67.90;;;;;;5022408;28;20172;-71
2021/06/06 09:09:16;;;;;;;4.57;3.97;;;23.90;68.10;;;;;;5019016;28;20588;-71
2021/06/06 09:11:43;;;;;;;3.42;3.33;;;24.10;66.40;;;;;;5017179;28;20216;-72
2021/06/06 09:14:09;;;;;;;4.93;4.10;;;24.20;66.40;;;;;;5024940;28;20736;-71
2021/06/06 09:16:57;;;;;;;4.07;3.90;;;24.40;66.50;;;;;;5019129;28;20184;-70
2021/06/06 09:19:24;;;;;;;4.20;4.00;;;24.60;65.50;;;;;;4979363;28;20299;-70
2021/06/06 09:22:02;;;;;;;4.65;4.45;;;24.70;65.50;;;;;;4976434;28;20201;-70
2021/06/06 09:24:42;;;;;;;4.57;4.30;;;24.80;64.80;;;;;;4978366;28;20994;-71
2021/06/06 09:27:15;;;;;;;5.00;4.80;;;24.80;64.20;;;;;;4976097;28;20185;-70
2021/06/06 09:29:42;;;;;;;4.75;4.57;;;24.90;64.60;;;;;;4984148;28;20194;-72
2021/06/06 09:32:15;;;;;;;5.38;5.07;;;25.00;64.50;;;;;;4978655;28;20221;-72
2021/06/06 09:34:56;;;;;;;5.05;4.80;;;25.10;63.30;;;;;;4971196;28;20197;-71
2021/06/06 09:37:26;;;;;;;4.93;4.72;;;25.10;64.30;;;;;;4983045;28;20196;-71
2021/06/06 09:39:59;;;;;;;5.22;5.00;;;25.20;64.10;;;;;;4959800;28;20198;-71
2021/06/06 09:42:33;;;;;;;4.53;4.32;;;25.30;64.10;;;;;;4979366;28;20428;-72
2021/06/06 09:45:04;;;;;;;4.78;4.50;;;25.30;63.70;;;;;;4974298;28;20190;-72
2021/06/06 09:47:29;;;;;;;5.78;5.00;;;25.50;63.50;;;;;;4967234;28;20232;-71
2021/06/06 09:50:10;;;;;;;4.82;4.63;;;25.50;63.10;;;;;;4982174;28;20653;-72
2021/06/06 09:52:42;;;;;;;4.78;4.50;;;25.60;62.50;;;;;;4987067;28;20193;-71
2021/06/06 09:55:30;;;;;;;5.13;4.78;;;25.70;62.50;;;;;;4986554;28;20189;-71
2021/06/06 09:58:31;;;;;;;4.90;4.53;;;25.90;62.80;;;;;;5024403;28;20661;-71
2021/06/06 10:01:06;;;;;;;4.50;4.30;;;26.00;61.10;;;;;;4984413;28;20248;-71
2021/06/06 10:03:40;;;;;;;4.53;4.32;;;26.00;61.60;;;;;;4970630;28;20240;-71
2021/06/06 10:06:16;;;;;;;4.00;3.90;;;26.10;61.10;;;;;;4981205;28;20193;-70
2021/06/06 10:08:43;;;;;;;4.43;4.22;;;26.20;60.60;;;;;;4983433;28;20898;-68
2021/06/06 10:11:16;;;;;;;4.32;4.03;;;26.30;60.30;;;;;;4985225;28;20723;-69
2021/06/06 10:13:46;;;;;;;4.07;3.88;;;26.50;60.60;;;;;;4987515;28;20639;-69
2021/06/06 10:16:16;;;;;;;4.07;3.88;;;26.70;60.80;;;;;;4986765;28;20182;-68
2021/06/06 10:18:42;;;;;;;4.20;4.07;;;27.00;59.70;;;;;;4987952;28;20202;-70
2021/06/06 10:21:21;;;;;;;4.50;4.25;;;27.20;59.10;;;;;;4986817;28;20201;-70
2021/06/06 10:23:51;;;;;;;5.00;4.57;;;27.60;59.40;;;;;;4985932;28;20244;-73
2021/06/06 10:26:20;;;;;;;4.35;4.05;;;27.90;59.20;;;;;;4984496;28;20181;-73
2021/06/06 10:28:57;;;;;;;4.45;4.15;;;28.00;59.00;;;;;;4987478;28;20287;-73
2021/06/06 10:31:22;;;;;;;4.13;4.03;;;28.10;59.20;;;;;;4985911;28;20627;-72
2021/06/06 10:34:09;;;;;;;5.18;4.68;;;28.40;58.60;;;;;;4986283;28;20197;-73
2021/06/06 10:36:37;;;;;;;3.95;3.72;;;28.80;59.00;;;;;;4982133;28;20220;-74
2021/06/06 10:39:15;;;;;;;4.20;3.90;;;29.40;58.20;;;;;;5014946;28;20651;-73
2021/06/06 10:41:55;;;;;;;4.13;3.97;;;29.70;57.40;;;;;;5019543;28;20647;-72
2021/06/06 10:44:32;;;;;;;4.40;4.20;;;29.60;55.80;;;;;;5028125;28;20226;-73
2021/06/06 10:47:06;;;;;;;4.15;4.05;;;29.70;56.10;;;;;;5025951;28;20295;-72
2021/06/06 10:49:54;;;;;;;4.50;4.30;;;29.60;56.70;;;;;;5016217;28;20275;-70
2021/06/06 10:52:38;;;;;;;3.92;3.72;;;29.90;56.10;;;;;;5022650;28;20220;-69
2021/06/06 10:55:29;;;;;;;4.22;4.03;;;30.40;54.70;;;;;;5019510;28;20233;-71
2021/06/06 10:57:55;;;;;;;4.28;3.92;;;30.70;54.40;;;;;;5018650;28;20194;-74
2021/06/06 11:00:34;;;;;;;4.15;4.05;;;31.00;54.40;;;;;;5020537;28;20197;-73
2021/06/06 11:03:12;;;;;;;3.75;3.65;;;30.90;53.80;;;;;;5025389;28;20219;-72
2021/06/06 11:05:48;;;;;;;4.40;4.18;;;30.80;54.10;;;;;;5017523;28;20253;-73
2021/06/06 11:08:28;;;;;;;4.00;3.90;;;30.70;54.50;;;;;;5022377;28;20198;-70
2021/06/06 11:10:57;;;;;;;3.70;3.60;;;30.80;54.10;;;;;;5027063;28;20303;-72
2021/06/06 11:13:34;;;;;;;3.67;3.58;;;30.80;53.90;;;;;;5022010;28;20196;-70
2021/06/06 11:16:23;;;;;;;3.65;3.55;;;31.10;54.40;;;;;;5021310;28;20176;-70
2021/06/06 11:18:50;;;;;;;3.75;3.55;;;31.90;53.00;;;;;;5022207;28;20748;-69
2021/06/06 11:21:29;;;;;;;5.63;3.28;;;32.60;52.30;;;;;;5025057;28;20325;-72
2021/06/06 11:23:59;;;;;;;6.63;3.63;;;33.30;50.80;;;;;;5024260;28;20191;-72
2021/06/06 11:26:30;;;;;;;3.88;3.60;;;34.00;50.20;;;;;;5020249;28;20192;-73
2021/06/06 11:29:19;;;;;;;3.13;3.13;;;34.40;49.00;;;;;;5012558;28;20184;-71
2021/06/06 11:32:13;;;;;;;2.78;2.67;;;35.00;47.70;;;;;;5022860;28;20311;-71
2021/06/06 11:34:42;;;;;;;3.10;2.92;;;35.40;47.30;;;;;;5018516;28;20188;-72
2021/06/06 11:37:29;;;;;;;3.47;3.13;;;35.90;47.50;;;;;;5025633;28;20679;-72
2021/06/06 11:39:57;;;;;;;2.90;2.80;;;36.20;45.80;;;;;;5024036;28;20215;-70
2021/06/06 11:42:30;;;;;;;2.88;2.70;;;36.60;46.30;;;;;;5016927;28;20555;-71
2021/06/06 11:45:17;;;;;;;2.75;2.55;;;36.60;47.00;;;;;;5019913;28;20202;-72
2021/06/06 11:47:54;;;;;;;2.85;2.75;;;36.80;46.60;;;;;;5023197;28;20183;-71
2021/06/06 11:50:35;;;;;;;3.58;2.08;;;37.20;43.80;;;;;;5026980;28;20211;-71
2021/06/06 11:53:08;;;;;;;2.80;2.80;;;37.50;43.70;;;;;;5020666;28;20181;-72
2021/06/06 11:55:38;;;;;;;6.07;2.17;;;37.50;45.40;;;;;;5028010;28;20183;-71
2021/06/06 11:58:09;;;;;;;2.72;1.98;;;37.60;45.30;;;;;;5026954;28;20180;-72
2021/06/06 12:00:56;;;;;;;2.15;2.05;;;37.70;44.50;;;;;;5018610;28;20192;-71
2021/06/06 12:03:31;;;;;;;2.38;1.45;;;38.00;43.80;;;;;;5012882;28;20208;-71
2021/06/06 12:06:02;;;;;;;1.38;1.38;;;38.50;43.60;;;;;;5017654;28;20585;-71
2021/06/06 12:08:51;;;;;;;1.60;1.60;;;38.70;43.30;;;;;;5027506;28;20738;-71
2021/06/06 12:11:20;;;;;;;2.90;1.60;;;38.90;40.60;;;;;;5015214;28;20207;-72
2021/06/06 12:13:48;;;;;;;1.77;1.70;;;39.20;40.70;;;;;;5013100;28;20180;-71
2021/06/06 12:16:18;;;;;;;2.22;2.13;;;39.50;41.80;;;;;;5018424;28;20199;-71
2021/06/06 12:18:48;;;;;;;2.20;2.00;;;39.70;41.70;;;;;;5023759;28;20191;-71
2021/06/06 12:21:18;;;;;;;7.80;1.80;;;39.90;42.50;;;;;;5024418;28;20364;-73
2021/06/06 12:23:48;;;;;;;1.80;1.70;;;40.10;41.40;;;;;;5019066;28;20669;-70
2021/06/06 12:26:23;;;;;;;1.77;1.60;;;40.20;40.90;;;;;;5021760;28;20230;-70
2021/06/06 12:28:53;;;;;;;1.40;1.27;;;40.30;40.60;;;;;;5025265;28;20194;-70
2021/06/06 12:31:29;;;;;;;1.50;1.50;;;40.50;40.50;;;;;;5028017;28;20218;-70
2021/06/06 12:34:08;;;;;;;3.13;1.60;;;40.70;40.40;;;;;;5017268;28;20172;-71
2021/06/06 12:36:37;;;;;;;1.70;1.60;;;40.80;40.10;;;;;;5020472;28;20683;-70
2021/06/06 12:39:06;;;;;;;1.25;1.25;;;41.10;40.90;;;;;;5019569;28;20180;-70
2021/06/06 12:41:39;;;;;;;1.35;1.20;;;41.10;39.80;;;;;;5020390;28;20655;-70
2021/06/06 12:44:08;;;;;;;1.40;1.40;;;41.00;39.20;;;;;;5017450;28;20205;-71
2021/06/06 12:46:52;;;;;;;1.65;1.52;;;41.10;41.10;;;;;;5018609;28;20191;-70
2021/06/06 12:49:33;;;;;;;1.95;1.85;;;41.30;39.60;;;;;;5021095;28;20302;-71
2021/06/06 12:52:02;;;;;;;3.70;1.70;;;41.70;39.30;;;;;;5013651;28;20212;-71
2021/06/06 12:54:37;;;;;;;1.70;1.67;;;42.00;41.60;;;;;;5018401;28;20673;-70
2021/06/06 12:57:19;;;;;;;1.50;1.50;;;42.00;39.90;;;;;;5019002;28;20171;-70
2021/06/06 12:59:46;;;;;;;1.85;1.35;;;41.80;39.50;;;;;;5019549;28;20188;-71
2021/06/06 13:02:21;;;;;;;1.50;1.50;;;41.80;40.70;;;;;;5015505;28;20181;-71
2021/06/06 13:05:00;;;;;;;1.63;1.63;;;41.80;39.60;;;;;;5022375;28;20187;-71
2021/06/06 13:07:34;;;;;;;1.30;1.30;;;41.40;38.50;;;;;;5020873;28;20661;-71